Airfield :
LOGIN :

Register | Disclaimer

   EN    FR    IT 

 










Legend :    VFR   Marginal VFR   IFR   Intensive IFR   Very Intensive IFR
Visi :
Ceiling :
>= 8 km
>= 3000ft
5 to 8 km
1000 to 3000 ft
1500m to 5 km
500 to 1000 ft
800 to 1500m
200 to 500 ft
< 800m
< 200 ft
Symbols :   Thunderstorms  Fog  Heavy snow  Heavy precipitations  Wind > 20 kt
SIGMETs :     Misc.  Thunderstorms  Icing  Turbulence  Mountain Waves  Volcanic Ashes






- Airport Elevation : -15 ft
- IATA code : RTM


EHRD - Rotterdam Zestienhoven

CURRENT METAR :
  • 250425Z AUTO 03005KT 360V060 9999 BKN009 BKN011 01/M00 Q1000 NOSIG

EXPIRED METARs :
  • 250355Z AUTO 04005KT 9999 BKN009 OVC010 01/00 Q0999 BECMG BKN030
  • 250325Z AUTO 04006KT 9999 FEW007 BKN008 FEW015CB 01/00 Q0999 TEMPO 4000
  • 250255Z AUTO 04006KT 360V060 8000 -DZ FEW006 BKN007 OVC008 01/00 Q0999 REDZ TEMPO 4000
  • 250225Z AUTO 05007KT 3800 -SN FEW005 BKN006 OVC007 00/00 Q0999 TEMPO 4000
  • 250155Z AUTO 06007KT 4400 -SN FEW005 SCT007 BKN008 01/00 Q0998 TEMPO 4000

TAF TAF EHRD
Valid from the 25 at 00:00 until the 26 at 06:00 UTC


242319Z 2500/2606 05007KT CAVOK
PROB40
TEMPO 2500/2504 4000 -SNRA BKN008
BECMG 2510/2513 27010KT SCT025
BECMG 2518/2521 28018G28KT
TEMPO 2520/2606 29022G33KT 6000 SHRA SCT018CB BKN030
BECMG 2603/2606 30010KT



MET'MAP, your aeronautical weather chart ! - Copyright ORBIFLY December 2007 - Disclaimer

ORBIFLY MET'MAP TEAM :

Programming & Development : Alexandra Zaïnal
Concept & original design : Baudouin d'Aumeries
Assistance for programming : Marc-Olivier Méhu
Technical & hardware support : Manuel Goepfert

Contact : metmap@orbifly.com




SOURCES & CREDITS :

   NOAA